Time,TemperatureF,DewpointF,PressureIn,WindDirection,WindDirectionDegrees,WindSpeedMPH,WindSpeedGustMPH,Humidity,HourlyPrecipIn,Conditions,Clouds,dailyrainin,SoftwareType,DateUTC
2013-02-21 00:06:00,39.8,-23.0,30.27,East,101,1.0,-999.0,6,-99.99,,,0.00,weatherlink.com 1.10,2013-02-21 05:06:00,
2013-02-21 00:21:00,39.3,-18.0,30.27,East,86,0.0,-999.0,8,-99.99,,,0.00,weatherlink.com 1.10,2013-02-21 05:21:00,
2013-02-21 00:36:00,39.5,-20.0,30.27,ENE,59,2.0,-999.0,7,-99.99,,,0.00,weatherlink.com 1.10,2013-02-21 05:36:00,
2013-02-21 00:51:00,39.1,-20.0,30.27,ENE,71,2.0,-999.0,7,-99.99,,,0.00,weatherlink.com 1.10,2013-02-21 05:51:00,
2013-02-21 01:06:00,39.1,-20.0,30.27,East,91,0.0,-999.0,7,-99.99,,,0.00,weatherlink.com 1.10,2013-02-21 06:06:00,
2013-02-21 01:21:00,39.7,-20.0,30.27,East,97,0.0,-999.0,7,-99.99,,,0.00,weatherlink.com 1.10,2013-02-21 06:21:00,
2013-02-21 01:36:00,40.1,-23.0,30.28,East,97,1.0,-999.0,6,-99.99,,,0.00,weatherlink.com 1.10,2013-02-21 06:36:00,
2013-02-21 01:51:00,40.0,-20.0,30.29,East,97,0.0,-999.0,7,-99.99,,,0.00,weatherlink.com 1.10,2013-02-21 06:51:00,
2013-02-21 02:06:00,39.9,-20.0,30.28,East,97,0.0,-999.0,7,-99.99,,,0.00,weatherlink.com 1.10,2013-02-21 07:06:00,
2013-02-21 02:21:00,39.8,-17.0,30.28,East,97,0.0,-999.0,8,-99.99,,,0.00,weatherlink.com 1.10,2013-02-21 07:21:00,
2013-02-21 02:36:00,39.4,-20.0,30.27,East,97,2.0,-999.0,7,-99.99,,,0.00,weatherlink.com 1.10,2013-02-21 07:36:00,
2013-02-21 02:51:00,39.6,-20.0,30.27,ENE,73,0.0,-999.0,7,-99.99,,,0.00,weatherlink.com 1.10,2013-02-21 07:51:00,
2013-02-21 03:06:00,39.9,-11.0,30.27,SSW,204,2.0,-999.0,11,-99.99,,,0.00,weatherlink.com 1.10,2013-02-21 08:06:00,
2013-02-21 03:21:00,34.2,-4.0,30.27,SSW,213,0.0,-999.0,19,-99.99,,,0.00,weatherlink.com 1.10,2013-02-21 08:21:00,
2013-02-21 03:36:00,32.9,0.0,30.27,SSW,213,1.0,-999.0,24,-99.99,,,0.00,weatherlink.com 1.10,2013-02-21 08:36:00,
2013-02-21 03:51:00,32.2,-3.0,30.27,ENE,78,0.0,-999.0,22,-99.99,,,0.00,weatherlink.com 1.10,2013-02-21 08:51:00,
2013-02-21 04:06:00,33.3,-4.0,30.27,ENE,78,0.0,-999.0,20,-99.99,,,0.00,weatherlink.com 1.10,2013-02-21 09:06:00,
2013-02-21 04:21:00,33.5,-6.0,30.27,ENE,78,0.0,-999.0,18,-99.99,,,0.00,weatherlink.com 1.10,2013-02-21 09:21:00,
2013-02-21 04:36:00,34.2,-11.0,30.26,ENE,78,0.0,-999.0,14,-99.99,,,0.00,weatherlink.com 1.10,2013-02-21 09:36:00,
2013-02-21 04:51:00,34.0,-3.0,30.27,SE,140,0.0,-999.0,20,-99.99,,,0.00,weatherlink.com 1.10,2013-02-21 09:51:00,
2013-02-21 05:06:00,34.2,-8.0,30.26,SE,140,0.0,-999.0,16,-99.99,,,0.00,weatherlink.com 1.10,2013-02-21 10:06:00,
2013-02-21 05:21:00,35.3,-8.0,30.27,SE,140,0.0,-999.0,15,-99.99,,,0.00,weatherlink.com 1.10,2013-02-21 10:21:00,
2013-02-21 05:36:00,35.9,-9.0,30.27,SE,140,0.0,-999.0,14,-99.99,,,0.00,weatherlink.com 1.10,2013-02-21 10:36:00,
2013-02-21 05:51:00,36.7,-13.0,30.27,SE,139,0.0,-999.0,11,-99.99,,,0.00,weatherlink.com 1.10,2013-02-21 10:51:00,
2013-02-21 06:06:00,37.1,-13.0,30.28,SSE,148,0.0,-999.0,11,-99.99,,,0.00,weatherlink.com 1.10,2013-02-21 11:06:00,
2013-02-21 06:21:00,37.1,-11.0,30.28,SSE,148,0.0,-999.0,12,-99.99,,,0.00,weatherlink.com 1.10,2013-02-21 11:21:00,
2013-02-21 06:36:00,37.1,-13.0,30.28,SSE,147,0.0,-999.0,11,-99.99,,,0.00,weatherlink.com 1.10,2013-02-21 11:36:00,
2013-02-21 06:51:00,38.1,-19.0,30.28,SSE,147,0.0,-999.0,8,-99.99,,,0.00,weatherlink.com 1.10,2013-02-21 11:51:00,
2013-02-21 07:06:00,38.6,-16.0,30.29,SSE,147,0.0,-999.0,9,-99.99,,,0.00,weatherlink.com 1.10,2013-02-21 12:06:00,
2013-02-21 07:21:00,37.8,-6.0,30.29,SSE,164,0.0,-999.0,15,-99.99,,,0.00,weatherlink.com 1.10,2013-02-21 12:21:00,
2013-02-21 07:36:00,35.5,-4.0,30.30,SSW,205,2.0,-999.0,18,-99.99,,,0.00,weatherlink.com 1.10,2013-02-21 12:36:00,
2013-02-21 07:51:00,34.0,-6.0,30.31,SSW,205,0.0,-999.0,18,-99.99,,,0.00,weatherlink.com 1.10,2013-02-21 12:51:00,
2013-02-21 08:06:00,34.3,-14.0,30.30,SSW,205,0.0,-999.0,12,-99.99,,,0.00,weatherlink.com 1.10,2013-02-21 13:06:00,
2013-02-21 08:21:00,36.5,-10.0,30.31,SSW,205,0.0,-999.0,13,-99.99,,,0.00,weatherlink.com 1.10,2013-02-21 13:21:00,
2013-02-21 08:36:00,35.8,-7.0,30.32,SSW,205,0.0,-999.0,16,-99.99,,,0.00,weatherlink.com 1.10,2013-02-21 13:36:00,
2013-02-21 08:51:00,37.9,-13.0,30.32,SSW,205,0.0,-999.0,11,-99.99,,,0.00,weatherlink.com 1.10,2013-02-21 13:51:00,
2013-02-21 09:06:00,37.8,-2.0,30.32,SSW,205,1.0,-999.0,18,-99.99,,,0.00,weatherlink.com 1.10,2013-02-21 14:06:00,
2013-02-21 09:21:00,38.0,-5.0,30.32,SSW,205,0.0,-999.0,16,-99.99,,,0.00,weatherlink.com 1.10,2013-02-21 14:21:00,
2013-02-21 09:36:00,39.4,-2.0,30.32,SSW,205,0.0,-999.0,17,-99.99,,,0.00,weatherlink.com 1.10,2013-02-21 14:36:00,
2013-02-21 09:51:00,39.8,1.0,30.32,SSW,205,0.0,-999.0,19,-99.99,,,0.00,weatherlink.com 1.10,2013-02-21 14:51:00,
2013-02-21 10:06:00,41.0,0.0,30.33,SSW,205,0.0,-999.0,18,-99.99,,,0.00,weatherlink.com 1.10,2013-02-21 15:06:00,
2013-02-21 10:21:00,41.8,3.0,30.32,SSW,205,0.0,-999.0,20,-99.99,,,0.00,weatherlink.com 1.10,2013-02-21 15:21:00,
2013-02-21 10:36:00,43.0,5.0,30.32,SSW,205,1.0,-999.0,21,-99.99,,,0.00,weatherlink.com 1.10,2013-02-21 15:36:00,
2013-02-21 10:51:00,44.0,6.0,30.32,SSW,205,0.0,-999.0,21,-99.99,,,0.00,weatherlink.com 1.10,2013-02-21 15:51:00,
2013-02-21 11:06:00,45.2,8.0,30.32,SSW,205,1.0,-999.0,22,-99.99,,,0.00,weatherlink.com 1.10,2013-02-21 16:06:00,
2013-02-21 11:21:00,46.5,8.0,30.31,SSW,207,0.0,-999.0,21,-99.99,,,0.00,weatherlink.com 1.10,2013-02-21 16:21:00,
2013-02-21 11:36:00,47.4,11.0,30.30,SSW,207,0.0,-999.0,23,-99.99,,,0.00,weatherlink.com 1.10,2013-02-21 16:36:00,
2013-02-21 11:51:00,48.7,13.0,30.29,SSW,207,1.0,-999.0,24,-99.99,,,0.00,weatherlink.com 1.10,2013-02-21 16:51:00,
2013-02-21 12:21:00,51.1,16.0,30.28,SSW,211,1.0,-999.0,25,-99.99,,,0.00,weatherlink.com 1.10,2013-02-21 17:21:00,
2013-02-21 12:36:00,52.1,18.0,30.27,SSW,208,3.0,-999.0,26,-99.99,,,0.00,weatherlink.com 1.10,2013-02-21 17:36:00,
2013-02-21 12:51:00,53.0,18.0,30.26,SSW,207,2.0,-999.0,25,-99.99,,,0.00,weatherlink.com 1.10,2013-02-21 17:51:00,
2013-02-21 13:06:00,53.7,18.0,30.25,SSW,207,0.0,-999.0,24,-99.99,,,0.00,weatherlink.com 1.10,2013-02-21 18:06:00,
2013-02-21 13:21:00,54.4,18.0,30.24,SSW,202,0.0,-999.0,24,-99.99,,,0.00,weatherlink.com 1.10,2013-02-21 18:21:00,
2013-02-21 13:36:00,55.1,18.0,30.23,SW,216,0.0,-999.0,23,-99.99,,,0.00,weatherlink.com 1.10,2013-02-21 18:36:00,
2013-02-21 13:51:00,55.6,18.0,30.23,SSW,212,3.0,-999.0,23,-99.99,,,0.00,weatherlink.com 1.10,2013-02-21 18:51:00,
2013-02-21 14:06:00,55.1,18.0,30.23,SSW,207,4.0,-999.0,23,-99.99,,,0.00,weatherlink.com 1.10,2013-02-21 19:06:00,
2013-02-21 14:21:00,55.3,18.0,30.23,SSW,209,1.0,-999.0,23,-99.99,,,0.00,weatherlink.com 1.10,2013-02-21 19:21:00,
2013-02-21 14:36:00,55.1,20.0,30.24,SSW,209,0.0,-999.0,25,-99.99,,,0.00,weatherlink.com 1.10,2013-02-21 19:36:00,
2013-02-21 14:51:00,54.1,18.0,30.23,SSW,206,4.0,-999.0,24,-99.99,,,0.00,weatherlink.com 1.10,2013-02-21 19:51:00,
2013-02-21 15:06:00,53.8,18.0,30.22,SSW,205,0.0,-999.0,24,-99.99,,,0.00,weatherlink.com 1.10,2013-02-21 20:06:00,
2013-02-21 15:21:00,53.3,17.0,30.22,SSW,209,1.0,-999.0,24,-99.99,,,0.00,weatherlink.com 1.10,2013-02-21 20:21:00,
2013-02-21 15:36:00,53.7,18.0,30.22,SSW,200,2.0,-999.0,24,-99.99,,,0.00,weatherlink.com 1.10,2013-02-21 20:36:00,
2013-02-21 15:51:00,53.0,18.0,30.22,SSW,197,1.0,-999.0,25,-99.99,,,0.00,weatherlink.com 1.10,2013-02-21 20:51:00,
2013-02-21 16:06:00,53.0,19.0,30.21,SSW,200,0.0,-999.0,26,-99.99,,,0.00,weatherlink.com 1.10,2013-02-21 21:06:00,
2013-02-21 16:21:00,52.7,18.0,30.22,SSW,200,0.0,-999.0,26,-99.99,,,0.00,weatherlink.com 1.10,2013-02-21 21:21:00,
2013-02-21 16:36:00,51.7,19.0,30.22,SSW,198,0.0,-999.0,27,-99.99,,,0.00,weatherlink.com 1.10,2013-02-21 21:36:00,
2013-02-21 16:51:00,50.9,19.0,30.21,SSW,198,0.0,-999.0,28,-99.99,,,0.00,weatherlink.com 1.10,2013-02-21 21:51:00,
2013-02-21 17:06:00,50.6,20.0,30.20,SSW,198,0.0,-999.0,30,-99.99,,,0.00,weatherlink.com 1.10,2013-02-21 22:06:00,
2013-02-21 17:21:00,50.2,22.0,30.19,SSW,198,0.0,-999.0,33,-99.99,,,0.00,weatherlink.com 1.10,2013-02-21 22:21:00,
2013-02-21 17:51:00,49.5,22.0,30.19,SSW,198,0.0,-999.0,34,-99.99,,,0.00,weatherlink.com 1.10,2013-02-21 22:51:00,
2013-02-21 18:06:00,49.4,22.0,30.18,SSW,194,1.0,-999.0,34,-99.99,,,0.00,weatherlink.com 1.10,2013-02-21 23:06:00,
2013-02-21 18:21:00,47.6,20.0,30.19,NE,44,1.0,-999.0,33,-99.99,,,0.00,weatherlink.com 1.10,2013-02-21 23:21:00,
2013-02-21 18:36:00,46.3,21.0,30.19,SSE,153,0.0,-999.0,36,-99.99,,,0.00,weatherlink.com 1.10,2013-02-21 23:36:00,
2013-02-21 18:51:00,45.0,19.0,30.20,South,173,1.0,-999.0,35,-99.99,,,0.00,weatherlink.com 1.10,2013-02-21 23:51:00,
2013-02-21 19:06:00,44.1,17.0,30.18,NE,44,10.0,-999.0,34,-99.99,,,0.00,weatherlink.com 1.10,2013-02-22 00:06:00,
2013-02-21 19:21:00,43.6,17.0,30.18,WNW,291,0.0,-999.0,35,-99.99,,,0.00,weatherlink.com 1.10,2013-02-22 00:21:00,
2013-02-21 19:36:00,42.4,21.0,30.21,SSW,212,0.0,-999.0,42,-99.99,,,0.00,weatherlink.com 1.10,2013-02-22 00:36:00,
2013-02-21 19:51:00,42.7,22.0,30.22,East,98,2.0,-999.0,44,-99.99,,,0.00,weatherlink.com 1.10,2013-02-22 00:51:00,
2013-02-21 20:06:00,43.3,19.0,30.26,SW,215,1.0,-999.0,38,-99.99,,,0.00,weatherlink.com 1.10,2013-02-22 01:06:00,
2013-02-21 20:21:00,42.7,19.0,30.26,SSE,149,0.0,-999.0,39,-99.99,,,0.00,weatherlink.com 1.10,2013-02-22 01:21:00,
2013-02-21 20:36:00,41.8,22.0,30.25,SE,134,5.0,-999.0,45,-99.99,,,0.00,weatherlink.com 1.10,2013-02-22 01:36:00,
2013-02-21 20:51:00,40.7,25.0,30.24,South,180,2.0,-999.0,55,-99.99,,,0.00,weatherlink.com 1.10,2013-02-22 01:51:00,
2013-02-21 21:06:00,38.5,28.0,30.23,North,9,0.0,-999.0,66,-99.99,,,0.00,weatherlink.com 1.10,2013-02-22 02:06:00,
2013-02-21 21:21:00,37.6,28.0,30.25,NW,310,0.0,-999.0,68,-99.99,,,0.00,weatherlink.com 1.10,2013-02-22 02:21:00,
2013-02-21 21:36:00,37.1,30.0,30.22,NW,313,6.0,-999.0,76,-99.99,,,0.00,weatherlink.com 1.10,2013-02-22 02:36:00,
2013-02-21 22:06:00,36.0,31.0,30.26,SSW,196,4.0,-999.0,82,-99.99,,,0.00,weatherlink.com 1.10,2013-02-22 03:06:00,
2013-02-21 22:21:00,35.5,31.0,30.24,NNE,33,2.0,-999.0,85,-99.99,,,0.00,weatherlink.com 1.10,2013-02-22 03:21:00,
2013-02-21 22:36:00,35.0,32.0,30.26,North,349,0.0,-999.0,87,-99.99,,,0.00,weatherlink.com 1.10,2013-02-22 03:36:00,
2013-02-21 22:51:00,35.3,33.0,30.25,NNW,347,1.0,-999.0,90,-99.99,,,0.00,weatherlink.com 1.10,2013-02-22 03:51:00,
2013-02-21 23:06:00,34.4,32.0,30.26,NNE,20,2.0,-999.0,91,-99.99,,,0.00,weatherlink.com 1.10,2013-02-22 04:06:00,
2013-02-21 23:21:00,34.3,33.0,30.26,SSW,198,4.0,-999.0,93,-99.99,,,0.00,weatherlink.com 1.10,2013-02-22 04:21:00,
2013-02-21 23:36:00,34.9,33.0,30.27,ENE,61,3.0,-999.0,93,-99.99,,,0.00,weatherlink.com 1.10,2013-02-22 04:36:00,
2013-02-21 23:51:00,35.1,33.0,30.28,SW,223,0.0,-999.0,92,-99.99,,,0.00,weatherlink.com 1.10,2013-02-22 04:51:00,